»·PEaware :: FDX1014 KSAN-KOAK

FDX1014 :: KSAN-KOAK

FLIGHT INFORMATION

Flight Status: Arrived
Operator:
Federal Express
More flights by this operator :: More flights under this callsign
Pilot: Jim M. (18055)
Aircraft: BOEING 777-200
(B772)
More flights by this aircraft type
Origin: KSAN San Diego Intl-Lindbergh
United States
Destination: KOAK Metro Oakland Intl
United States
More flights between these airports :: More routes between these airports
Route: PADRZ2 OROSZ COREZ RGOOD EMZOH3
File this flight plan on PilotEdge
Remarks:
Altitude:
(Current/Filed)
36,000ft
Speed:
(Current/Filed)
460kts
Departed: 09-Jul-19 10:48 AM
Arrived: 09-Jul-19 11:48 AM
Distance/Time
Traveled:
387nm/1:00
Distance/Time
To Go:
Arrived

Flight Plot

Page will automatically refresh every two minutes.


Map Options




Map Legend


Flown Route
Filed Route
Departure Airport
Arrival Airport
Navaid (VOR, NDB)
Fix

Horizontal Profiles

Position Reports

Time Latitude Longitude Heading Altitude Ground
Speed
09-Jul-19 10:13 32.737274 -117.186910 105 28ft 0kts
09-Jul-19 10:14 32.737274 -117.186910 105 28ft 0kts
09-Jul-19 10:15 32.737274 -117.186910 105 28ft 0kts
09-Jul-19 10:16 32.737274 -117.186910 105 28ft 0kts
09-Jul-19 10:17 32.737274 -117.186910 105 28ft 0kts
09-Jul-19 10:18 32.737274 -117.186910 105 28ft 0kts
09-Jul-19 10:19 32.737274 -117.186910 105 28ft 0kts
09-Jul-19 10:20 32.737274 -117.186910 105 28ft 0kts
09-Jul-19 10:21 32.737274 -117.186910 105 28ft 0kts
09-Jul-19 10:22 32.737274 -117.186910 105 28ft 0kts
09-Jul-19 10:23 32.737274 -117.186910 105 28ft 0kts
09-Jul-19 10:24 32.737274 -117.186910 105 28ft 0kts
09-Jul-19 10:25 32.737274 -117.186910 105 28ft 0kts
09-Jul-19 10:26 32.737274 -117.186910 105 28ft 0kts
09-Jul-19 10:27 32.737274 -117.186910 105 28ft 0kts
09-Jul-19 10:28 32.737274 -117.186910 105 28ft 0kts
09-Jul-19 10:29 32.737274 -117.186910 105 28ft 0kts
09-Jul-19 10:30 32.737274 -117.186910 105 28ft 0kts
09-Jul-19 10:31 32.737274 -117.186910 105 28ft 0kts
09-Jul-19 10:32 32.737274 -117.186910 105 28ft 0kts
09-Jul-19 10:33 32.737274 -117.186910 105 28ft 0kts
09-Jul-19 10:34 32.737274 -117.186910 105 28ft 0kts
09-Jul-19 10:35 32.737274 -117.186910 105 28ft 0kts
09-Jul-19 10:36 32.737274 -117.186910 105 28ft 0kts
09-Jul-19 10:37 32.737274 -117.186910 105 28ft 0kts
09-Jul-19 10:39 32.737274 -117.186910 105 28ft 0kts
09-Jul-19 10:40 32.737274 -117.186910 105 28ft 0kts
09-Jul-19 10:41 32.736650 -117.185815 140 28ft 9kts
09-Jul-19 10:42 32.734641 -117.184034 152 28ft 3kts
09-Jul-19 10:43 32.734325 -117.183944 175 28ft 5kts
09-Jul-19 10:44 32.732955 -117.182474 106 28ft 12kts
09-Jul-19 10:45 32.732117 -117.178852 105 28ft 9kts
09-Jul-19 10:46 32.731436 -117.176030 118 28ft 7kts
09-Jul-19 10:47 32.730292 -117.176083 282 28ft 12kts
09-Jul-19 10:48 32.740397 -117.214326 294 2185ft 171kts
09-Jul-19 10:49 32.774771 -117.275418 304 4582ft 269kts
09-Jul-19 10:50 32.819712 -117.350362 307 9018ft 290kts
09-Jul-19 10:51 32.873141 -117.432302 306 12123ft 349kts
09-Jul-19 10:52 32.936995 -117.531630 306 14884ft 399kts
09-Jul-19 10:53 33.004312 -117.636577 305 15036ft 399kts
09-Jul-19 10:54 33.076256 -117.741982 314 18501ft 419kts
09-Jul-19 10:55 33.167133 -117.834579 318 21745ft 438kts
09-Jul-19 10:56 33.262326 -117.928968 319 23992ft 452kts
09-Jul-19 10:56 33.345045 -118.009453 320 26216ft 469kts
09-Jul-19 10:58 33.466198 -118.128059 319 29190ft 494kts
09-Jul-19 10:58 33.556167 -118.215913 320 31407ft 501kts
09-Jul-19 10:59 33.674100 -118.291785 337 34487ft 491kts
09-Jul-19 11:01 33.677631 -118.293492 337 34565ft 491kts
09-Jul-19 11:06 34.545211 -118.756317 327 36183ft 486kts
09-Jul-19 11:07 34.661451 -118.840406 328 36211ft 485kts
09-Jul-19 11:08 34.777977 -118.923214 328 36215ft 484kts
09-Jul-19 11:09 34.893845 -119.005712 328 36200ft 483kts
09-Jul-19 11:10 35.009861 -119.088734 328 36159ft 483kts
09-Jul-19 11:11 35.125654 -119.171884 328 36127ft 482kts
09-Jul-19 11:12 35.241279 -119.255189 328 36111ft 482kts
09-Jul-19 11:13 35.356793 -119.338451 328 36103ft 481kts
09-Jul-19 11:14 35.471970 -119.422177 329 36094ft 480kts
09-Jul-19 11:15 35.584620 -119.509449 322 36094ft 480kts
09-Jul-19 11:16 35.686151 -119.615706 320 36094ft 478kts
09-Jul-19 11:17 35.788454 -119.720564 320 36097ft 478kts
09-Jul-19 11:18 35.890738 -119.825908 320 36099ft 478kts
09-Jul-19 11:19 35.988113 -119.936967 315 36100ft 478kts
09-Jul-19 11:20 36.083520 -120.051979 316 36100ft 478kts
09-Jul-19 11:21 36.179214 -120.166041 316 36014ft 474kts
09-Jul-19 11:22 36.275171 -120.280384 316 34097ft 484kts
09-Jul-19 11:23 36.372479 -120.396714 315 32062ft 489kts
09-Jul-19 11:24 36.469880 -120.514349 314 29762ft 482kts
09-Jul-19 11:25 36.565346 -120.628097 316 27448ft 468kts
09-Jul-19 11:26 36.661463 -120.732960 316 25372ft 444kts
09-Jul-19 11:27 36.749100 -120.830578 316 23471ft 414kts
09-Jul-19 11:28 36.833777 -120.924615 316 21628ft 401kts
09-Jul-19 11:29 36.916083 -121.015683 316 19840ft 387kts
09-Jul-19 11:30 36.995750 -121.104353 316 17956ft 380kts
09-Jul-19 11:31 37.073399 -121.191326 316 16256ft 368kts
09-Jul-19 11:32 37.148035 -121.275330 316 14922ft 350kts
09-Jul-19 11:33 37.214420 -121.352314 315 13843ft 303kts
09-Jul-19 11:34 37.275083 -121.423171 315 11774ft 298kts
09-Jul-19 11:35 37.335562 -121.493941 315 10447ft 296kts
09-Jul-19 11:36 37.396059 -121.564208 316 9096ft 292kts
09-Jul-19 11:37 37.452204 -121.634233 306 7733ft 280kts
09-Jul-19 11:38 37.496498 -121.713621 305 6729ft 270kts
09-Jul-19 11:39 37.532929 -121.794403 285 6042ft 268kts
09-Jul-19 11:40 37.544710 -121.885328 276 5126ft 258kts
09-Jul-19 11:41 37.554661 -121.972447 277 4323ft 232kts
09-Jul-19 11:42 37.582851 -122.038067 310 3529ft 209kts
09-Jul-19 11:43 37.617919 -122.089142 308 2518ft 181kts
09-Jul-19 11:44 37.645823 -122.130852 307 1691ft 135kts
09-Jul-19 11:45 37.672368 -122.170613 308 898ft 147kts
09-Jul-19 11:46 37.697202 -122.208118 306 151ft 134kts
09-Jul-19 11:47 37.713084 -122.231698 312 19ft 23kts
09-Jul-19 11:48 37.715722 -122.232736 50 19ft 7kts
09-Jul-19 11:49 37.714661 -122.230521 129 19ft 10kts
09-Jul-19 11:50 37.712207 -122.226771 130 19ft 9kts
09-Jul-19 11:51 37.711208 -122.224486 54 19ft 8kts
09-Jul-19 11:52 37.712856 -122.222270 45 19ft 13kts
09-Jul-19 11:53 37.714776 -122.219875 45 19ft 9kts
09-Jul-19 11:54 37.716706 -122.219216 34 19ft 5kts
09-Jul-19 11:55 37.718102 -122.219144 313 19ft 0kts
09-Jul-19 11:56 37.718102 -122.219145 313 19ft 0kts

Navigation Log

Ident Type
Flight plan parsing failed, navigation log unavailable